sensor_id;sensor_type;location;lat;lon;timestamp;temperature;humidity
41080;DHT22;26826;50.718;7.114;2023-01-19T00:03:10;0.40;99.90
41080;DHT22;26826;50.718;7.114;2023-01-19T00:13:15;0.40;99.90
41080;DHT22;26826;50.718;7.114;2023-01-19T00:23:16;0.60;99.90
41080;DHT22;26826;50.718;7.114;2023-01-19T00:33:16;0.70;99.90
41080;DHT22;26826;50.718;7.114;2023-01-19T00:43:17;0.70;99.90
41080;DHT22;26826;50.718;7.114;2023-01-19T00:53:17;0.70;99.90
41080;DHT22;26826;50.718;7.114;2023-01-19T01:03:18;0.50;99.90
41080;DHT22;26826;50.718;7.114;2023-01-19T01:13:18;0.50;99.90
41080;DHT22;26826;50.718;7.114;2023-01-19T01:23:19;0.40;99.90
41080;DHT22;26826;50.718;7.114;2023-01-19T01:33:22;0.40;99.90
41080;DHT22;26826;50.718;7.114;2023-01-19T01:43:22;0.30;99.90
41080;DHT22;26826;50.718;7.114;2023-01-19T01:53:23;0.20;99.90
41080;DHT22;26826;50.718;7.114;2023-01-19T02:03:24;0.40;99.90
41080;DHT22;26826;50.718;7.114;2023-01-19T02:13:32;0.60;99.90
41080;DHT22;26826;50.718;7.114;2023-01-19T02:23:37;0.70;99.90
41080;DHT22;26826;50.718;7.114;2023-01-19T02:33:38;0.80;99.90
41080;DHT22;26826;50.718;7.114;2023-01-19T02:43:40;1.00;99.90
41080;DHT22;26826;50.718;7.114;2023-01-19T02:54:08;1.10;99.90
41080;DHT22;26826;50.718;7.114;2023-01-19T03:04:50;1.00;99.90
41080;DHT22;26826;50.718;7.114;2023-01-19T03:14:58;1.10;99.90
41080;DHT22;26826;50.718;7.114;2023-01-19T03:25:02;1.10;99.90
41080;DHT22;26826;50.718;7.114;2023-01-19T03:35:07;0.90;99.90
41080;DHT22;26826;50.718;7.114;2023-01-19T03:45:08;0.80;99.90
41080;DHT22;26826;50.718;7.114;2023-01-19T03:55:11;0.90;99.90
41080;DHT22;26826;50.718;7.114;2023-01-19T04:05:13;1.00;99.90
41080;DHT22;26826;50.718;7.114;2023-01-19T04:15:14;1.00;99.90
41080;DHT22;26826;50.718;7.114;2023-01-19T04:25:15;1.10;99.90
41080;DHT22;26826;50.718;7.114;2023-01-19T04:35:15;1.10;99.90
41080;DHT22;26826;50.718;7.114;2023-01-19T04:45:16;1.10;99.90
41080;DHT22;26826;50.718;7.114;2023-01-19T04:55:16;1.30;99.90
41080;DHT22;26826;50.718;7.114;2023-01-19T05:05:17;1.50;99.90
41080;DHT22;26826;50.718;7.114;2023-01-19T05:15:18;1.50;99.90
41080;DHT22;26826;50.718;7.114;2023-01-19T05:25:18;1.50;99.90
41080;DHT22;26826;50.718;7.114;2023-01-19T05:35:19;1.50;99.90
41080;DHT22;26826;50.718;7.114;2023-01-19T05:45:19;1.60;99.90
41080;DHT22;26826;50.718;7.114;2023-01-19T05:55:20;1.60;99.90
41080;DHT22;26826;50.718;7.114;2023-01-19T06:05:21;1.80;99.90
41080;DHT22;26826;50.718;7.114;2023-01-19T06:15:21;1.90;99.90
41080;DHT22;26826;50.718;7.114;2023-01-19T06:25:22;2.00;99.90
41080;DHT22;26826;50.718;7.114;2023-01-19T06:35:23;1.90;99.90
41080;DHT22;26826;50.718;7.114;2023-01-19T06:45:23;1.80;99.90
41080;DHT22;26826;50.718;7.114;2023-01-19T06:55:24;1.50;99.90
41080;DHT22;26826;50.718;7.114;2023-01-19T07:05:24;1.50;99.90
41080;DHT22;26826;50.718;7.114;2023-01-19T07:15:25;1.30;99.90
41080;DHT22;26826;50.718;7.114;2023-01-19T07:25:25;1.10;99.90
41080;DHT22;26826;50.718;7.114;2023-01-19T07:35:26;1.10;99.90
41080;DHT22;26826;50.718;7.114;2023-01-19T07:45:28;1.10;99.90
41080;DHT22;26826;50.718;7.114;2023-01-19T07:55:29;1.10;99.90
41080;DHT22;26826;50.718;7.114;2023-01-19T08:05:31;1.10;99.90
41080;DHT22;26826;50.718;7.114;2023-01-19T08:15:32;1.10;99.90
41080;DHT22;26826;50.718;7.114;2023-01-19T08:25:33;1.10;99.90
41080;DHT22;26826;50.718;7.114;2023-01-19T08:35:36;1.20;99.90
41080;DHT22;26826;50.718;7.114;2023-01-19T08:45:39;1.20;99.90
41080;DHT22;26826;50.718;7.114;2023-01-19T08:55:47;1.40;99.90
41080;DHT22;26826;50.718;7.114;2023-01-19T09:05:47;1.40;99.90
41080;DHT22;26826;50.718;7.114;2023-01-19T09:15:48;1.40;99.90
41080;DHT22;26826;50.718;7.114;2023-01-19T09:25:55;1.60;99.90
41080;DHT22;26826;50.718;7.114;2023-01-19T09:35:56;1.70;99.90
41080;DHT22;26826;50.718;7.114;2023-01-19T09:46:01;1.80;99.90
41080;DHT22;26826;50.718;7.114;2023-01-19T09:56:02;2.00;99.90
41080;DHT22;26826;50.718;7.114;2023-01-19T10:06:05;2.00;99.90
41080;DHT22;26826;50.718;7.114;2023-01-19T10:26:36;2.30;99.90
41080;DHT22;26826;50.718;7.114;2023-01-19T10:36:39;2.50;99.90
41080;DHT22;26826;50.718;7.114;2023-01-19T10:46:46;2.30;99.90
41080;DHT22;26826;50.718;7.114;2023-01-19T10:56:52;2.40;99.90
41080;DHT22;26826;50.718;7.114;2023-01-19T11:06:59;2.60;99.90
41080;DHT22;26826;50.718;7.114;2023-01-19T11:17:22;2.70;99.90
41080;DHT22;26826;50.718;7.114;2023-01-19T11:27:24;2.70;99.90
41080;DHT22;26826;50.718;7.114;2023-01-19T11:37:28;2.90;99.90
41080;DHT22;26826;50.718;7.114;2023-01-19T11:47:44;3.00;99.90
41080;DHT22;26826;50.718;7.114;2023-01-19T11:57:47;3.30;99.90
41080;DHT22;26826;50.718;7.114;2023-01-19T12:07:50;3.50;99.90
41080;DHT22;26826;50.718;7.114;2023-01-19T12:17:53;3.60;99.90
41080;DHT22;26826;50.718;7.114;2023-01-19T12:27:55;4.00;99.90
41080;DHT22;26826;50.718;7.114;2023-01-19T12:37:56;5.30;99.90
41080;DHT22;26826;50.718;7.114;2023-01-19T12:47:57;6.00;99.90
41080;DHT22;26826;50.718;7.114;2023-01-19T12:58:15;6.50;99.90
41080;DHT22;26826;50.718;7.114;2023-01-19T13:08:23;6.00;99.90
41080;DHT22;26826;50.718;7.114;2023-01-19T13:18:26;6.60;99.90
41080;DHT22;26826;50.718;7.114;2023-01-19T13:28:41;6.10;99.90
41080;DHT22;26826;50.718;7.114;2023-01-19T13:38:42;7.60;99.90
41080;DHT22;26826;50.718;7.114;2023-01-19T13:48:53;6.50;99.90
41080;DHT22;26826;50.718;7.114;2023-01-19T13:59:07;5.80;99.90
41080;DHT22;26826;50.718;7.114;2023-01-19T14:09:16;5.50;99.90
41080;DHT22;26826;50.718;7.114;2023-01-19T14:19:17;5.00;99.90
41080;DHT22;26826;50.718;7.114;2023-01-19T14:39:30;4.60;99.90
41080;DHT22;26826;50.718;7.114;2023-01-19T14:59:32;4.40;99.90
41080;DHT22;26826;50.718;7.114;2023-01-19T15:09:32;4.60;99.90
41080;DHT22;26826;50.718;7.114;2023-01-19T15:19:33;4.60;99.90
41080;DHT22;26826;50.718;7.114;2023-01-19T15:29:33;4.60;99.90
41080;DHT22;26826;50.718;7.114;2023-01-19T15:39:34;4.50;99.90
41080;DHT22;26826;50.718;7.114;2023-01-19T15:49:34;4.30;99.90
41080;DHT22;26826;50.718;7.114;2023-01-19T15:59:35;4.10;99.90
41080;DHT22;26826;50.718;7.114;2023-01-19T16:09:36;3.80;99.90
41080;DHT22;26826;50.718;7.114;2023-01-19T16:19:36;3.80;99.90
41080;DHT22;26826;50.718;7.114;2023-01-19T16:29:37;3.70;99.90
41080;DHT22;26826;50.718;7.114;2023-01-19T16:39:37;3.50;99.90
41080;DHT22;26826;50.718;7.114;2023-01-19T16:49:38;3.50;99.90
41080;DHT22;26826;50.718;7.114;2023-01-19T16:59:38;3.40;99.90
41080;DHT22;26826;50.718;7.114;2023-01-19T17:09:39;3.40;99.90
41080;DHT22;26826;50.718;7.114;2023-01-19T17:19:39;3.30;99.90
41080;DHT22;26826;50.718;7.114;2023-01-19T17:29:40;3.50;99.90
41080;DHT22;26826;50.718;7.114;2023-01-19T17:39:40;3.50;99.90
41080;DHT22;26826;50.718;7.114;2023-01-19T17:49:41;3.40;99.90
41080;DHT22;26826;50.718;7.114;2023-01-19T17:59:41;3.30;99.90
41080;DHT22;26826;50.718;7.114;2023-01-19T18:09:43;3.30;99.90
41080;DHT22;26826;50.718;7.114;2023-01-19T18:19:43;3.10;99.90
41080;DHT22;26826;50.718;7.114;2023-01-19T18:29:44;3.10;99.90
41080;DHT22;26826;50.718;7.114;2023-01-19T18:39:44;3.20;99.90
41080;DHT22;26826;50.718;7.114;2023-01-19T18:49:45;3.00;99.90
41080;DHT22;26826;50.718;7.114;2023-01-19T18:59:46;2.90;99.90
41080;DHT22;26826;50.718;7.114;2023-01-19T19:09:46;2.60;99.90
41080;DHT22;26826;50.718;7.114;2023-01-19T19:19:47;2.30;99.90
41080;DHT22;26826;50.718;7.114;2023-01-19T19:29:47;2.20;99.90
41080;DHT22;26826;50.718;7.114;2023-01-19T19:39:48;2.00;99.90
41080;DHT22;26826;50.718;7.114;2023-01-19T19:49:48;2.00;99.90
41080;DHT22;26826;50.718;7.114;2023-01-19T19:59:49;1.80;99.90
41080;DHT22;26826;50.718;7.114;2023-01-19T20:09:49;1.90;99.90
41080;DHT22;26826;50.718;7.114;2023-01-19T20:19:52;1.70;99.90
41080;DHT22;26826;50.718;7.114;2023-01-19T20:29:53;1.60;99.90
41080;DHT22;26826;50.718;7.114;2023-01-19T20:39:57;1.60;99.90
41080;DHT22;26826;50.718;7.114;2023-01-19T20:49:58;1.50;99.90
41080;DHT22;26826;50.718;7.114;2023-01-19T20:59:59;1.80;99.90
41080;DHT22;26826;50.718;7.114;2023-01-19T21:20:03;1.80;99.90
41080;DHT22;26826;50.718;7.114;2023-01-19T21:30:04;1.60;99.90
41080;DHT22;26826;50.718;7.114;2023-01-19T21:40:05;1.50;99.90
41080;DHT22;26826;50.718;7.114;2023-01-19T21:50:06;1.70;99.90
41080;DHT22;26826;50.718;7.114;2023-01-19T22:00:07;1.70;99.90
41080;DHT22;26826;50.718;7.114;2023-01-19T22:10:10;1.60;99.90
41080;DHT22;26826;50.718;7.114;2023-01-19T22:20:10;1.50;99.90
41080;DHT22;26826;50.718;7.114;2023-01-19T22:30:11;1.40;99.90
41080;DHT22;26826;50.718;7.114;2023-01-19T22:40:12;1.60;99.90
41080;DHT22;26826;50.718;7.114;2023-01-19T22:50:12;1.80;99.90
41080;DHT22;26826;50.718;7.114;2023-01-19T23:00:13;1.70;99.90
41080;DHT22;26826;50.718;7.114;2023-01-19T23:10:14;1.70;99.90
41080;DHT22;26826;50.718;7.114;2023-01-19T23:20:15;1.70;99.90
41080;DHT22;26826;50.718;7.114;2023-01-19T23:30:16;1.70;99.90
41080;DHT22;26826;50.718;7.114;2023-01-19T23:40:16;1.60;99.90
41080;DHT22;26826;50.718;7.114;2023-01-19T23:50:17;1.60;99.90
